Kit Carson, Colorado
Current Conditions -  °F | °C
As of 8:53 AM on Friday 31 Oct 2014 (Local Time) from KITR Reporting Station
Clear Clear  
Wind Chill: 25°   Ceiling: Unl
Heat Index: 34°   Visibility: 10mi
Dew Point: 29°   Wind: 12mph
Humidity: 82%   Direction: 160°SSE
Pressure: 30.47"   Gusts: NA
Location:  38.76°N, 102.79°W
Report Text: KITR 311453Z AUTO 16010KT 10SM CLR 01/M02 A3047 RMK AO2 SLP320 I3000 T00111017 53007
Loading
Personal Weather Stations






























Interactive Weather Map
Tropical Storm Tracking
New forecast layout! Learn more

10-Day Weather Forecast

Advertisements
Track Severe Weather on mobile